Time,TemperatureF,DewpointF,PressureIn,WindDirection,WindDirectionDegrees,WindSpeedMPH,WindSpeedGustMPH,Humidity,HourlyPrecipIn,Conditions,Clouds,dailyrainin,SolarRadiationWatts/m^2,SoftwareType,DateUTC
2013-08-04 00:01:00,59.0,48.0,-100.00,West,263,3.0,11.0,66,0.00,,,0.13,0.000000,,2013-08-04 06:01:00,
2013-08-04 00:12:00,59.0,48.0,-100.00,West,263,3.0,11.0,66,0.00,,,0.13,0.000000,,2013-08-04 06:12:00,
2013-08-04 00:22:00,59.0,48.0,-100.00,West,263,3.0,11.0,66,0.00,,,0.13,0.000000,,2013-08-04 06:22:00,
2013-08-04 00:30:00,56.0,49.0,-100.00,NW,305,2.0,5.0,78,0.00,,,0.13,0.000000,,2013-08-04 06:30:00,
2013-08-04 00:52:00,56.0,49.0,-100.00,NW,305,2.0,5.0,78,0.00,,,0.13,0.000000,,2013-08-04 06:52:00,
2013-08-04 01:02:00,56.0,49.0,-100.00,NW,305,2.0,5.0,78,0.00,,,0.13,0.000000,,2013-08-04 07:02:00,
2013-08-04 01:12:00,56.0,49.0,-100.00,NW,305,2.0,5.0,78,0.00,,,0.13,0.000000,,2013-08-04 07:12:00,
2013-08-04 01:22:00,56.0,49.0,-100.00,NW,305,2.0,5.0,78,0.00,,,0.13,0.000000,,2013-08-04 07:22:00,
2013-08-04 01:30:00,54.0,48.0,-100.00,NW,318,5.0,7.0,81,0.00,,,0.13,0.000000,,2013-08-04 07:30:00,
2013-08-04 02:02:00,54.0,48.0,-100.00,NW,318,5.0,7.0,81,0.00,,,0.13,0.000000,,2013-08-04 08:02:00,
2013-08-04 02:12:00,54.0,48.0,-100.00,NW,318,5.0,7.0,81,0.00,,,0.13,0.000000,,2013-08-04 08:12:00,
2013-08-04 02:22:00,54.0,48.0,-100.00,NW,318,5.0,7.0,81,0.00,,,0.13,0.000000,,2013-08-04 08:22:00,
2013-08-04 02:30:00,54.0,48.0,-100.00,WSW,237,3.0,11.0,81,0.00,,,0.13,0.000000,,2013-08-04 08:30:00,
2013-08-04 02:53:00,54.0,48.0,-100.00,WSW,237,3.0,11.0,81,0.00,,,0.13,0.000000,,2013-08-04 08:53:00,
2013-08-04 03:02:00,54.0,48.0,-100.00,WSW,237,3.0,11.0,81,0.00,,,0.13,0.000000,,2013-08-04 09:02:00,
2013-08-04 03:12:00,54.0,48.0,-100.00,WSW,237,3.0,11.0,81,0.00,,,0.13,0.000000,,2013-08-04 09:12:00,
2013-08-04 03:22:00,54.0,48.0,-100.00,WSW,237,3.0,11.0,81,0.00,,,0.13,0.000000,,2013-08-04 09:22:00,
2013-08-04 03:30:00,52.0,47.0,-100.00,WSW,247,6.0,7.0,83,0.00,,,0.13,0.000000,,2013-08-04 09:30:00,
2013-08-04 04:02:00,52.0,47.0,-100.00,WSW,247,6.0,7.0,83,0.00,,,0.13,0.000000,,2013-08-04 10:02:00,
2013-08-04 04:12:00,52.0,47.0,-100.00,WSW,247,6.0,7.0,83,0.00,,,0.13,0.000000,,2013-08-04 10:12:00,
2013-08-04 04:22:00,52.0,47.0,-100.00,WSW,247,6.0,7.0,83,0.00,,,0.13,0.000000,,2013-08-04 10:22:00,
2013-08-04 04:30:00,51.0,47.0,-100.00,WSW,240,6.0,9.0,86,0.00,,,0.13,0.000000,,2013-08-04 10:30:00,
2013-08-04 04:53:00,51.0,47.0,-100.00,WSW,240,6.0,9.0,86,0.00,,,0.13,0.000000,,2013-08-04 10:53:00,
2013-08-04 05:02:00,51.0,47.0,-100.00,WSW,240,6.0,9.0,86,0.00,,,0.13,0.000000,,2013-08-04 11:02:00,
2013-08-04 05:12:00,51.0,47.0,-100.00,WSW,240,6.0,9.0,86,0.00,,,0.13,0.000000,,2013-08-04 11:12:00,
2013-08-04 05:22:00,51.0,47.0,-100.00,WSW,240,6.0,9.0,86,0.00,,,0.13,0.000000,,2013-08-04 11:22:00,
2013-08-04 05:30:00,52.0,48.0,-100.00,West,263,7.0,9.0,87,0.00,,,0.13,0.000000,,2013-08-04 11:30:00,
2013-08-04 05:53:00,52.0,48.0,-100.00,West,263,7.0,9.0,87,0.00,,,0.13,0.000000,,2013-08-04 11:53:00,
2013-08-04 06:02:00,52.0,48.0,-100.00,West,263,7.0,9.0,87,0.00,,,0.13,0.000000,,2013-08-04 12:02:00,
2013-08-04 06:12:00,52.0,48.0,-100.00,West,263,7.0,9.0,87,0.00,,,0.13,0.000000,,2013-08-04 12:12:00,
2013-08-04 06:22:00,52.0,48.0,-100.00,West,263,7.0,9.0,87,0.00,,,0.13,0.000000,,2013-08-04 12:22:00,
2013-08-04 06:30:00,49.0,46.0,-100.00,WSW,256,8.0,9.0,89,0.00,,,0.13,3.000000,,2013-08-04 12:30:00,
2013-08-04 07:02:00,49.0,46.0,-100.00,WSW,256,8.0,9.0,89,0.00,,,0.13,3.000000,,2013-08-04 13:02:00,
2013-08-04 07:12:00,49.0,46.0,-100.00,WSW,256,8.0,9.0,89,0.00,,,0.13,3.000000,,2013-08-04 13:12:00,
2013-08-04 07:22:00,49.0,46.0,-100.00,WSW,256,8.0,9.0,89,0.00,,,0.13,3.000000,,2013-08-04 13:22:00,
2013-08-04 07:30:00,52.0,48.0,-100.00,WSW,242,5.0,9.0,87,0.00,,,0.13,58.000000,,2013-08-04 13:30:00,
2013-08-04 08:02:00,52.0,48.0,-100.00,WSW,242,5.0,9.0,87,0.00,,,0.13,58.000000,,2013-08-04 14:02:00,
2013-08-04 08:12:00,52.0,48.0,-100.00,WSW,242,5.0,9.0,87,0.00,,,0.13,58.000000,,2013-08-04 14:12:00,
2013-08-04 08:22:00,52.0,48.0,-100.00,WSW,242,5.0,9.0,87,0.00,,,0.13,58.000000,,2013-08-04 14:22:00,
2013-08-04 08:30:00,58.0,50.0,-100.00,WNW,286,6.0,8.0,76,0.00,,,0.13,243.000000,,2013-08-04 14:30:00,
2013-08-04 09:02:00,58.0,50.0,-100.00,WNW,286,6.0,8.0,76,0.00,,,0.13,243.000000,,2013-08-04 15:02:00,
2013-08-04 09:12:00,58.0,50.0,-100.00,WNW,286,6.0,8.0,76,0.00,,,0.13,243.000000,,2013-08-04 15:12:00,
2013-08-04 09:22:00,58.0,50.0,-100.00,WNW,286,6.0,8.0,76,0.00,,,0.13,243.000000,,2013-08-04 15:22:00,
2013-08-04 09:30:00,65.0,51.0,-100.00,WSW,256,5.0,8.0,61,0.00,,,0.13,450.000000,,2013-08-04 15:30:00,
2013-08-04 10:01:00,65.0,51.0,-100.00,WSW,256,5.0,8.0,61,0.00,,,0.13,450.000000,,2013-08-04 16:01:00,
2013-08-04 10:12:00,65.0,51.0,-100.00,WSW,256,5.0,8.0,61,0.00,,,0.13,450.000000,,2013-08-04 16:12:00,
2013-08-04 10:22:00,65.0,51.0,-100.00,WSW,256,5.0,8.0,61,0.00,,,0.13,450.000000,,2013-08-04 16:22:00,
2013-08-04 10:30:00,72.0,49.0,-100.00,WNW,297,5.0,8.0,45,0.00,,,0.13,651.000000,,2013-08-04 16:30:00,
2013-08-04 10:53:00,72.0,49.0,-100.00,WNW,297,5.0,8.0,45,0.00,,,0.13,651.000000,,2013-08-04 16:53:00,
2013-08-04 11:02:00,72.0,49.0,-100.00,WNW,297,5.0,8.0,45,0.00,,,0.13,651.000000,,2013-08-04 17:02:00,
2013-08-04 11:12:00,72.0,49.0,-100.00,WNW,297,5.0,8.0,45,0.00,,,0.13,651.000000,,2013-08-04 17:12:00,
2013-08-04 11:22:00,72.0,49.0,-100.00,WNW,297,5.0,8.0,45,0.00,,,0.13,651.000000,,2013-08-04 17:22:00,
2013-08-04 11:30:00,79.0,50.0,-100.00,SSW,196,4.0,8.0,36,0.00,,,0.13,811.000000,,2013-08-04 17:30:00,
2013-08-04 11:53:00,79.0,50.0,-100.00,SSW,196,4.0,8.0,36,0.00,,,0.13,811.000000,,2013-08-04 17:53:00,
2013-08-04 12:02:00,79.0,50.0,-100.00,SSW,196,4.0,8.0,36,0.00,,,0.13,811.000000,,2013-08-04 18:02:00,
2013-08-04 12:12:00,79.0,50.0,-100.00,SSW,196,4.0,8.0,36,0.00,,,0.13,811.000000,,2013-08-04 18:12:00,
2013-08-04 12:22:00,79.0,50.0,-100.00,SSW,196,4.0,8.0,36,0.00,,,0.13,811.000000,,2013-08-04 18:22:00,
2013-08-04 12:30:00,80.0,47.0,-100.00,ESE,106,5.0,11.0,32,0.00,,,0.00,972.000000,,2013-08-04 18:30:00,
2013-08-04 12:52:00,80.0,47.0,-100.00,ESE,106,5.0,11.0,32,0.00,,,0.00,972.000000,,2013-08-04 18:52:00,
2013-08-04 13:02:00,80.0,47.0,-100.00,ESE,106,5.0,11.0,32,0.00,,,0.00,972.000000,,2013-08-04 19:02:00,
2013-08-04 13:12:00,80.0,47.0,-100.00,ESE,106,5.0,11.0,32,0.00,,,0.00,972.000000,,2013-08-04 19:12:00,
2013-08-04 13:22:00,80.0,47.0,-100.00,ESE,106,5.0,11.0,32,0.00,,,0.00,972.000000,,2013-08-04 19:22:00,
2013-08-04 13:30:00,81.0,45.0,-100.00,NNE,27,5.0,12.0,28,0.00,,,0.00,808.000000,,2013-08-04 19:30:00,
2013-08-04 13:53:00,81.0,45.0,-100.00,NNE,27,5.0,12.0,28,0.00,,,0.00,808.000000,,2013-08-04 19:53:00,
2013-08-04 14:02:00,81.0,45.0,-100.00,NNE,27,5.0,12.0,28,0.00,,,0.00,808.000000,,2013-08-04 20:02:00,
2013-08-04 14:12:00,81.0,45.0,-100.00,NNE,27,5.0,12.0,28,0.00,,,0.00,808.000000,,2013-08-04 20:12:00,
2013-08-04 14:22:00,81.0,45.0,-100.00,NNE,27,5.0,12.0,28,0.00,,,0.00,808.000000,,2013-08-04 20:22:00,
2013-08-04 14:30:00,85.0,48.0,-100.00,SSW,193,5.0,11.0,28,0.00,,,0.00,724.000000,,2013-08-04 20:30:00,
2013-08-04 14:53:00,85.0,48.0,-100.00,SSW,193,5.0,11.0,28,0.00,,,0.00,724.000000,,2013-08-04 20:53:00,
2013-08-04 15:02:00,85.0,48.0,-100.00,SSW,193,5.0,11.0,28,0.00,,,0.00,724.000000,,2013-08-04 21:02:00,
2013-08-04 15:12:00,85.0,48.0,-100.00,SSW,193,5.0,11.0,28,0.00,,,0.00,724.000000,,2013-08-04 21:12:00,
2013-08-04 15:22:00,85.0,48.0,-100.00,SSW,193,5.0,11.0,28,0.00,,,0.00,724.000000,,2013-08-04 21:22:00,
2013-08-04 15:30:00,87.0,46.0,-100.00,ESE,106,5.0,12.0,24,0.00,,,0.00,1068.000000,,2013-08-04 21:30:00,
2013-08-04 15:53:00,87.0,46.0,-100.00,ESE,106,5.0,12.0,24,0.00,,,0.00,1068.000000,,2013-08-04 21:53:00,
2013-08-04 16:01:00,87.0,46.0,-100.00,ESE,106,5.0,12.0,24,0.00,,,0.00,1068.000000,,2013-08-04 22:01:00,
2013-08-04 16:12:00,87.0,46.0,-100.00,ESE,106,5.0,12.0,24,0.00,,,0.00,1068.000000,,2013-08-04 22:12:00,
2013-08-04 16:22:00,87.0,46.0,-100.00,ESE,106,5.0,12.0,24,0.00,,,0.00,1068.000000,,2013-08-04 22:22:00,
2013-08-04 16:30:00,80.0,44.0,-100.00,ENE,65,8.0,16.0,28,0.00,,,0.00,621.000000,,2013-08-04 22:30:00,
2013-08-04 16:53:00,80.0,44.0,-100.00,ENE,65,8.0,16.0,28,0.00,,,0.00,621.000000,,2013-08-04 22:53:00,
2013-08-04 17:02:00,80.0,44.0,-100.00,ENE,65,8.0,16.0,28,0.00,,,0.00,621.000000,,2013-08-04 23:02:00,
2013-08-04 17:11:00,80.0,44.0,-100.00,ENE,65,8.0,16.0,28,0.00,,,0.00,621.000000,,2013-08-04 23:11:00,
2013-08-04 17:22:00,80.0,44.0,-100.00,ENE,65,8.0,16.0,28,0.00,,,0.00,621.000000,,2013-08-04 23:22:00,
2013-08-04 17:30:00,84.0,44.0,-100.00,East,89,6.0,14.0,25,0.00,,,0.00,659.000000,,2013-08-04 23:30:00,
2013-08-04 17:53:00,84.0,44.0,-100.00,East,89,6.0,14.0,25,0.00,,,0.00,659.000000,,2013-08-04 23:53:00,
2013-08-04 18:01:00,84.0,44.0,-100.00,East,89,6.0,14.0,25,0.00,,,0.00,659.000000,,2013-08-05 00:01:00,
2013-08-04 18:12:00,84.0,44.0,-100.00,East,89,6.0,14.0,25,0.00,,,0.00,659.000000,,2013-08-05 00:12:00,
2013-08-04 18:22:00,84.0,44.0,-100.00,East,89,6.0,14.0,25,0.00,,,0.00,659.000000,,2013-08-05 00:22:00,
2013-08-04 18:30:00,83.0,44.0,-100.00,NE,50,8.0,14.0,25,0.00,,,0.00,586.000000,,2013-08-05 00:30:00,
2013-08-04 18:52:00,83.0,44.0,-100.00,NE,50,8.0,14.0,25,0.00,,,0.00,586.000000,,2013-08-05 00:52:00,
2013-08-04 19:02:00,83.0,44.0,-100.00,NE,50,8.0,14.0,25,0.00,,,0.00,586.000000,,2013-08-05 01:02:00,
2013-08-04 19:12:00,83.0,44.0,-100.00,NE,50,8.0,14.0,25,0.00,,,0.00,586.000000,,2013-08-05 01:12:00,
2013-08-04 19:22:00,83.0,44.0,-100.00,NE,50,8.0,14.0,25,0.00,,,0.00,586.000000,,2013-08-05 01:22:00,
2013-08-04 19:30:00,81.0,43.0,-100.00,ENE,60,8.0,12.0,26,0.00,,,0.00,370.000000,,2013-08-05 01:30:00,
2013-08-04 19:52:00,81.0,43.0,-100.00,ENE,60,8.0,12.0,26,0.00,,,0.00,370.000000,,2013-08-05 01:52:00,
2013-08-04 20:02:00,81.0,43.0,-100.00,ENE,60,8.0,12.0,26,0.00,,,0.00,370.000000,,2013-08-05 02:02:00,
2013-08-04 20:12:00,81.0,43.0,-100.00,ENE,60,8.0,12.0,26,0.00,,,0.00,370.000000,,2013-08-05 02:12:00,
2013-08-04 20:22:00,81.0,43.0,-100.00,ENE,60,8.0,12.0,26,0.00,,,0.00,370.000000,,2013-08-05 02:22:00,
2013-08-04 20:30:00,77.0,41.0,-100.00,ENE,57,9.0,15.0,28,0.00,,,0.00,146.000000,,2013-08-05 02:30:00,
2013-08-04 20:53:00,77.0,41.0,-100.00,ENE,57,9.0,15.0,28,0.00,,,0.00,146.000000,,2013-08-05 02:53:00,
2013-08-04 21:02:00,77.0,41.0,-100.00,ENE,57,9.0,15.0,28,0.00,,,0.00,146.000000,,2013-08-05 03:02:00,
2013-08-04 21:12:00,77.0,41.0,-100.00,ENE,57,9.0,15.0,28,0.00,,,0.00,146.000000,,2013-08-05 03:12:00,
2013-08-04 21:22:00,77.0,41.0,-100.00,ENE,57,9.0,15.0,28,0.00,,,0.00,146.000000,,2013-08-05 03:22:00,
2013-08-04 21:30:00,74.0,41.0,-100.00,NE,52,6.0,13.0,30,0.00,,,0.00,5.000000,,2013-08-05 03:30:00,
2013-08-04 22:02:00,74.0,41.0,-100.00,NE,52,6.0,13.0,30,0.00,,,0.00,5.000000,,2013-08-05 04:02:00,
2013-08-04 22:12:00,74.0,41.0,-100.00,NE,52,6.0,13.0,30,0.00,,,0.00,5.000000,,2013-08-05 04:12:00,
2013-08-04 22:22:00,74.0,41.0,-100.00,NE,52,6.0,13.0,30,0.00,,,0.00,5.000000,,2013-08-05 04:22:00,
2013-08-04 22:30:00,68.0,39.0,-100.00,ESE,108,6.0,11.0,35,0.00,,,0.00,0.000000,,2013-08-05 04:30:00,
2013-08-04 22:52:00,68.0,39.0,-100.00,ESE,108,6.0,11.0,35,0.00,,,0.00,0.000000,,2013-08-05 04:52:00,
2013-08-04 23:02:00,68.0,39.0,-100.00,ESE,108,6.0,11.0,35,0.00,,,0.00,0.000000,,2013-08-05 05:02:00,
2013-08-04 23:11:00,68.0,39.0,-100.00,ESE,108,6.0,11.0,35,0.00,,,0.00,0.000000,,2013-08-05 05:11:00,
2013-08-04 23:21:00,68.0,39.0,-100.00,ESE,108,6.0,11.0,35,0.00,,,0.00,0.000000,,2013-08-05 05:21:00,
2013-08-04 23:30:00,62.0,46.0,-100.00,West,277,3.0,7.0,55,0.00,,,0.00,0.000000,,2013-08-05 05:30:00,
2013-08-04 23:53:00,62.0,46.0,-100.00,West,277,3.0,7.0,55,0.00,,,0.00,0.000000,,2013-08-05 05:53:00,